sensor_id;sensor_type;location;lat;lon;timestamp;temperature;humidity
52615;DHT22;38508;53.158;6.614;2023-05-07T00:02:25;14.30;99.90
52615;DHT22;38508;53.158;6.614;2023-05-07T00:04:51;14.30;99.90
52615;DHT22;38508;53.158;6.614;2023-05-07T00:07:17;14.30;99.90
52615;DHT22;38508;53.158;6.614;2023-05-07T00:09:43;14.40;99.90
52615;DHT22;38508;53.158;6.614;2023-05-07T00:12:09;14.20;99.90
52615;DHT22;38508;53.158;6.614;2023-05-07T00:14:35;14.10;99.90
52615;DHT22;38508;53.158;6.614;2023-05-07T00:17:00;14.20;99.90
52615;DHT22;38508;53.158;6.614;2023-05-07T00:19:26;14.10;99.90
52615;DHT22;38508;53.158;6.614;2023-05-07T00:21:52;14.10;99.90
52615;DHT22;38508;53.158;6.614;2023-05-07T00:24:19;13.90;99.90
52615;DHT22;38508;53.158;6.614;2023-05-07T00:26:45;14.00;99.90
52615;DHT22;38508;53.158;6.614;2023-05-07T00:29:11;14.00;99.90
52615;DHT22;38508;53.158;6.614;2023-05-07T00:31:36;14.00;99.90
52615;DHT22;38508;53.158;6.614;2023-05-07T00:34:02;14.00;99.90
52615;DHT22;38508;53.158;6.614;2023-05-07T00:36:28;14.00;99.90
52615;DHT22;38508;53.158;6.614;2023-05-07T00:38:54;14.00;99.90
52615;DHT22;38508;53.158;6.614;2023-05-07T00:41:21;13.90;99.90
52615;DHT22;38508;53.158;6.614;2023-05-07T00:43:46;14.00;99.90
52615;DHT22;38508;53.158;6.614;2023-05-07T00:46:13;14.00;99.90
52615;DHT22;38508;53.158;6.614;2023-05-07T00:48:39;14.00;99.90
52615;DHT22;38508;53.158;6.614;2023-05-07T00:51:05;14.00;99.90
52615;DHT22;38508;53.158;6.614;2023-05-07T00:53:31;13.90;99.90
52615;DHT22;38508;53.158;6.614;2023-05-07T00:55:57;13.90;99.90
52615;DHT22;38508;53.158;6.614;2023-05-07T00:58:23;13.90;99.90
52615;DHT22;38508;53.158;6.614;2023-05-07T01:00:49;13.80;99.90
52615;DHT22;38508;53.158;6.614;2023-05-07T01:03:15;13.80;99.90
52615;DHT22;38508;53.158;6.614;2023-05-07T01:05:42;13.60;99.90
52615;DHT22;38508;53.158;6.614;2023-05-07T01:08:08;13.60;99.90
52615;DHT22;38508;53.158;6.614;2023-05-07T01:10:34;13.70;99.90
52615;DHT22;38508;53.158;6.614;2023-05-07T01:13:00;13.60;99.90
52615;DHT22;38508;53.158;6.614;2023-05-07T01:15:27;13.60;99.90
52615;DHT22;38508;53.158;6.614;2023-05-07T01:17:53;13.50;99.90
52615;DHT22;38508;53.158;6.614;2023-05-07T01:20:19;13.50;99.90
52615;DHT22;38508;53.158;6.614;2023-05-07T01:22:45;13.60;99.90
52615;DHT22;38508;53.158;6.614;2023-05-07T01:25:11;13.60;99.90
52615;DHT22;38508;53.158;6.614;2023-05-07T01:27:37;13.40;99.90
52615;DHT22;38508;53.158;6.614;2023-05-07T01:30:06;13.30;99.90
52615;DHT22;38508;53.158;6.614;2023-05-07T01:32:42;13.30;99.90
52615;DHT22;38508;53.158;6.614;2023-05-07T01:35:11;13.40;99.90
52615;DHT22;38508;53.158;6.614;2023-05-07T01:37:38;13.30;99.90
52615;DHT22;38508;53.158;6.614;2023-05-07T01:40:05;13.30;99.90
52615;DHT22;38508;53.158;6.614;2023-05-07T01:42:32;13.40;99.90
52615;DHT22;38508;53.158;6.614;2023-05-07T01:44:59;13.40;99.90
52615;DHT22;38508;53.158;6.614;2023-05-07T01:47:25;13.30;99.90
52615;DHT22;38508;53.158;6.614;2023-05-07T01:49:52;13.20;99.90
52615;DHT22;38508;53.158;6.614;2023-05-07T01:52:18;13.20;99.90
52615;DHT22;38508;53.158;6.614;2023-05-07T01:54:43;13.30;99.90
52615;DHT22;38508;53.158;6.614;2023-05-07T01:57:09;13.40;99.90
52615;DHT22;38508;53.158;6.614;2023-05-07T01:59:35;13.30;99.90
52615;DHT22;38508;53.158;6.614;2023-05-07T02:02:01;13.30;99.90
52615;DHT22;38508;53.158;6.614;2023-05-07T02:04:26;13.30;99.90
52615;DHT22;38508;53.158;6.614;2023-05-07T02:06:52;13.20;99.90
52615;DHT22;38508;53.158;6.614;2023-05-07T02:09:18;13.20;99.90
52615;DHT22;38508;53.158;6.614;2023-05-07T02:11:44;13.10;99.90
52615;DHT22;38508;53.158;6.614;2023-05-07T02:14:10;13.20;99.90
52615;DHT22;38508;53.158;6.614;2023-05-07T02:16:36;13.20;99.90
52615;DHT22;38508;53.158;6.614;2023-05-07T02:19:01;13.30;99.90
52615;DHT22;38508;53.158;6.614;2023-05-07T02:21:27;13.20;99.90
52615;DHT22;38508;53.158;6.614;2023-05-07T02:23:53;13.10;99.90
52615;DHT22;38508;53.158;6.614;2023-05-07T02:26:19;13.10;99.90
52615;DHT22;38508;53.158;6.614;2023-05-07T02:28:45;13.00;99.90
52615;DHT22;38508;53.158;6.614;2023-05-07T02:31:11;13.10;99.90
52615;DHT22;38508;53.158;6.614;2023-05-07T02:33:36;13.10;99.90
52615;DHT22;38508;53.158;6.614;2023-05-07T02:36:20;13.20;99.90
52615;DHT22;38508;53.158;6.614;2023-05-07T02:38:45;13.20;99.90
52615;DHT22;38508;53.158;6.614;2023-05-07T02:41:11;13.10;99.90
52615;DHT22;38508;53.158;6.614;2023-05-07T02:43:37;13.10;99.90
52615;DHT22;38508;53.158;6.614;2023-05-07T02:46:03;13.20;99.90
52615;DHT22;38508;53.158;6.614;2023-05-07T02:48:29;13.10;99.90
52615;DHT22;38508;53.158;6.614;2023-05-07T02:50:55;13.10;99.90
52615;DHT22;38508;53.158;6.614;2023-05-07T02:53:20;13.10;99.90
52615;DHT22;38508;53.158;6.614;2023-05-07T02:55:46;13.10;99.90
52615;DHT22;38508;53.158;6.614;2023-05-07T02:58:12;13.20;99.90
52615;DHT22;38508;53.158;6.614;2023-05-07T03:00:37;13.20;99.90
52615;DHT22;38508;53.158;6.614;2023-05-07T03:03:03;13.40;99.90
52615;DHT22;38508;53.158;6.614;2023-05-07T03:05:29;13.30;99.90
52615;DHT22;38508;53.158;6.614;2023-05-07T03:07:54;13.30;99.90
52615;DHT22;38508;53.158;6.614;2023-05-07T03:10:20;13.30;99.90
52615;DHT22;38508;53.158;6.614;2023-05-07T03:12:45;13.20;99.90
52615;DHT22;38508;53.158;6.614;2023-05-07T03:15:11;13.20;99.90
52615;DHT22;38508;53.158;6.614;2023-05-07T03:17:38;13.20;99.90
52615;DHT22;38508;53.158;6.614;2023-05-07T03:20:04;13.30;99.90
52615;DHT22;38508;53.158;6.614;2023-05-07T03:22:30;13.30;99.90
52615;DHT22;38508;53.158;6.614;2023-05-07T03:24:56;13.40;99.90
52615;DHT22;38508;53.158;6.614;2023-05-07T03:27:22;13.30;99.90
52615;DHT22;38508;53.158;6.614;2023-05-07T03:29:47;13.20;99.90
52615;DHT22;38508;53.158;6.614;2023-05-07T03:32:13;13.10;99.90
52615;DHT22;38508;53.158;6.614;2023-05-07T03:34:38;13.20;99.90
52615;DHT22;38508;53.158;6.614;2023-05-07T03:37:04;13.20;99.90
52615;DHT22;38508;53.158;6.614;2023-05-07T03:39:30;13.30;99.90
52615;DHT22;38508;53.158;6.614;2023-05-07T03:41:56;13.30;99.90
52615;DHT22;38508;53.158;6.614;2023-05-07T03:44:22;13.20;99.90
52615;DHT22;38508;53.158;6.614;2023-05-07T03:46:47;13.10;99.90
52615;DHT22;38508;53.158;6.614;2023-05-07T03:49:13;13.10;99.90
52615;DHT22;38508;53.158;6.614;2023-05-07T03:51:39;13.20;99.90
52615;DHT22;38508;53.158;6.614;2023-05-07T03:54:04;13.20;99.90
52615;DHT22;38508;53.158;6.614;2023-05-07T03:56:30;13.10;99.90
52615;DHT22;38508;53.158;6.614;2023-05-07T03:58:56;13.00;99.90
52615;DHT22;38508;53.158;6.614;2023-05-07T04:01:22;12.90;99.90
52615;DHT22;38508;53.158;6.614;2023-05-07T04:03:48;12.70;99.90
52615;DHT22;38508;53.158;6.614;2023-05-07T04:06:15;12.80;99.90
52615;DHT22;38508;53.158;6.614;2023-05-07T04:08:40;12.50;99.90
52615;DHT22;38508;53.158;6.614;2023-05-07T04:11:06;12.40;99.90
52615;DHT22;38508;53.158;6.614;2023-05-07T04:13:32;12.40;99.90
52615;DHT22;38508;53.158;6.614;2023-05-07T04:15:58;12.50;99.90
52615;DHT22;38508;53.158;6.614;2023-05-07T04:18:23;12.50;99.90
52615;DHT22;38508;53.158;6.614;2023-05-07T04:20:49;12.60;99.90
52615;DHT22;38508;53.158;6.614;2023-05-07T04:23:15;12.60;99.90
52615;DHT22;38508;53.158;6.614;2023-05-07T04:25:41;12.60;99.90
52615;DHT22;38508;53.158;6.614;2023-05-07T04:28:07;12.40;99.90
52615;DHT22;38508;53.158;6.614;2023-05-07T04:30:32;12.50;99.90
52615;DHT22;38508;53.158;6.614;2023-05-07T04:32:58;12.50;99.90
52615;DHT22;38508;53.158;6.614;2023-05-07T04:35:24;12.60;99.90
52615;DHT22;38508;53.158;6.614;2023-05-07T04:37:49;12.70;99.90
52615;DHT22;38508;53.158;6.614;2023-05-07T04:40:15;12.80;99.90
52615;DHT22;38508;53.158;6.614;2023-05-07T04:42:41;12.60;99.90
52615;DHT22;38508;53.158;6.614;2023-05-07T04:45:07;12.70;99.90
52615;DHT22;38508;53.158;6.614;2023-05-07T04:47:34;12.50;99.90
52615;DHT22;38508;53.158;6.614;2023-05-07T04:50:00;12.50;99.90
52615;DHT22;38508;53.158;6.614;2023-05-07T04:52:25;12.60;99.90
52615;DHT22;38508;53.158;6.614;2023-05-07T04:54:52;12.60;99.90
52615;DHT22;38508;53.158;6.614;2023-05-07T04:57:17;12.70;99.90
52615;DHT22;38508;53.158;6.614;2023-05-07T04:59:43;12.70;99.90
52615;DHT22;38508;53.158;6.614;2023-05-07T05:02:12;12.60;99.90
52615;DHT22;38508;53.158;6.614;2023-05-07T05:04:38;12.50;99.90
52615;DHT22;38508;53.158;6.614;2023-05-07T05:07:04;12.60;99.90
52615;DHT22;38508;53.158;6.614;2023-05-07T05:09:30;12.60;99.90
52615;DHT22;38508;53.158;6.614;2023-05-07T05:11:55;12.60;99.90
52615;DHT22;38508;53.158;6.614;2023-05-07T05:14:21;12.60;99.90
52615;DHT22;38508;53.158;6.614;2023-05-07T05:16:47;12.50;99.90
52615;DHT22;38508;53.158;6.614;2023-05-07T05:19:12;12.40;99.90
52615;DHT22;38508;53.158;6.614;2023-05-07T05:21:38;12.40;99.90
52615;DHT22;38508;53.158;6.614;2023-05-07T05:24:04;12.50;99.90
52615;DHT22;38508;53.158;6.614;2023-05-07T05:26:29;12.50;99.90
52615;DHT22;38508;53.158;6.614;2023-05-07T05:28:55;12.50;99.90
52615;DHT22;38508;53.158;6.614;2023-05-07T05:31:21;12.50;99.90
52615;DHT22;38508;53.158;6.614;2023-05-07T05:33:46;12.40;99.90
52615;DHT22;38508;53.158;6.614;2023-05-07T05:36:12;12.60;99.90
52615;DHT22;38508;53.158;6.614;2023-05-07T05:38:39;12.50;99.90
52615;DHT22;38508;53.158;6.614;2023-05-07T05:41:05;12.50;99.90
52615;DHT22;38508;53.158;6.614;2023-05-07T05:43:31;12.50;99.90
52615;DHT22;38508;53.158;6.614;2023-05-07T05:45:57;12.50;99.90
52615;DHT22;38508;53.158;6.614;2023-05-07T05:48:23;12.60;99.90
52615;DHT22;38508;53.158;6.614;2023-05-07T05:50:49;12.50;99.90
52615;DHT22;38508;53.158;6.614;2023-05-07T05:53:14;12.60;99.90
52615;DHT22;38508;53.158;6.614;2023-05-07T05:55:41;12.60;99.90
52615;DHT22;38508;53.158;6.614;2023-05-07T05:58:08;12.40;99.90
52615;DHT22;38508;53.158;6.614;2023-05-07T06:00:34;12.40;99.90
52615;DHT22;38508;53.158;6.614;2023-05-07T06:02:59;12.50;99.90
52615;DHT22;38508;53.158;6.614;2023-05-07T06:05:25;12.40;99.90
52615;DHT22;38508;53.158;6.614;2023-05-07T06:07:51;12.50;99.90
52615;DHT22;38508;53.158;6.614;2023-05-07T06:10:17;12.50;99.90
52615;DHT22;38508;53.158;6.614;2023-05-07T06:12:42;12.50;99.90
52615;DHT22;38508;53.158;6.614;2023-05-07T06:15:09;12.40;99.90
52615;DHT22;38508;53.158;6.614;2023-05-07T06:17:34;12.40;99.90
52615;DHT22;38508;53.158;6.614;2023-05-07T06:20:00;12.50;99.90
52615;DHT22;38508;53.158;6.614;2023-05-07T06:22:26;12.50;99.90
52615;DHT22;38508;53.158;6.614;2023-05-07T06:24:51;12.50;99.90
52615;DHT22;38508;53.158;6.614;2023-05-07T06:27:17;12.40;99.90
52615;DHT22;38508;53.158;6.614;2023-05-07T06:29:43;12.40;99.90
52615;DHT22;38508;53.158;6.614;2023-05-07T06:32:10;12.40;99.90
52615;DHT22;38508;53.158;6.614;2023-05-07T06:34:36;12.40;99.90
52615;DHT22;38508;53.158;6.614;2023-05-07T06:37:02;12.40;99.90
52615;DHT22;38508;53.158;6.614;2023-05-07T06:39:28;12.30;99.90
52615;DHT22;38508;53.158;6.614;2023-05-07T06:41:54;12.30;99.90
52615;DHT22;38508;53.158;6.614;2023-05-07T06:44:19;12.40;99.90
52615;DHT22;38508;53.158;6.614;2023-05-07T06:46:45;12.30;99.90
52615;DHT22;38508;53.158;6.614;2023-05-07T06:49:12;12.40;99.90
52615;DHT22;38508;53.158;6.614;2023-05-07T06:51:38;12.60;99.90
52615;DHT22;38508;53.158;6.614;2023-05-07T06:54:04;12.70;99.90
52615;DHT22;38508;53.158;6.614;2023-05-07T06:56:30;12.80;99.90
52615;DHT22;38508;53.158;6.614;2023-05-07T06:58:56;12.70;99.90
52615;DHT22;38508;53.158;6.614;2023-05-07T07:01:22;12.80;99.90
52615;DHT22;38508;53.158;6.614;2023-05-07T07:03:47;13.00;99.90
52615;DHT22;38508;53.158;6.614;2023-05-07T07:06:13;12.90;99.90
52615;DHT22;38508;53.158;6.614;2023-05-07T07:08:39;13.00;99.90
52615;DHT22;38508;53.158;6.614;2023-05-07T07:11:05;13.00;99.90
52615;DHT22;38508;53.158;6.614;2023-05-07T07:13:31;13.00;99.90
52615;DHT22;38508;53.158;6.614;2023-05-07T07:15:57;12.90;99.90
52615;DHT22;38508;53.158;6.614;2023-05-07T07:18:22;12.90;99.90
52615;DHT22;38508;53.158;6.614;2023-05-07T07:20:48;12.80;99.90
52615;DHT22;38508;53.158;6.614;2023-05-07T07:23:14;12.70;99.90
52615;DHT22;38508;53.158;6.614;2023-05-07T07:25:40;12.80;99.90
52615;DHT22;38508;53.158;6.614;2023-05-07T07:28:05;12.70;99.90
52615;DHT22;38508;53.158;6.614;2023-05-07T07:30:31;12.80;99.90
52615;DHT22;38508;53.158;6.614;2023-05-07T07:32:57;12.80;99.90
52615;DHT22;38508;53.158;6.614;2023-05-07T07:35:31;12.70;99.90
52615;DHT22;38508;53.158;6.614;2023-05-07T07:37:57;12.80;99.90
52615;DHT22;38508;53.158;6.614;2023-05-07T07:40:23;13.00;99.90
52615;DHT22;38508;53.158;6.614;2023-05-07T07:42:49;13.10;99.90
52615;DHT22;38508;53.158;6.614;2023-05-07T07:45:14;13.20;99.90
52615;DHT22;38508;53.158;6.614;2023-05-07T07:47:40;13.20;99.90
52615;DHT22;38508;53.158;6.614;2023-05-07T07:50:07;13.40;99.90
52615;DHT22;38508;53.158;6.614;2023-05-07T07:52:33;13.20;99.90
52615;DHT22;38508;53.158;6.614;2023-05-07T07:54:59;13.30;99.90
52615;DHT22;38508;53.158;6.614;2023-05-07T07:57:24;13.30;99.90
52615;DHT22;38508;53.158;6.614;2023-05-07T07:59:50;13.50;99.90
52615;DHT22;38508;53.158;6.614;2023-05-07T08:02:17;13.50;99.90
52615;DHT22;38508;53.158;6.614;2023-05-07T08:04:43;13.60;99.90
52615;DHT22;38508;53.158;6.614;2023-05-07T08:07:12;13.70;99.90
52615;DHT22;38508;53.158;6.614;2023-05-07T08:09:38;13.80;99.90
52615;DHT22;38508;53.158;6.614;2023-05-07T08:12:05;14.00;99.90
52615;DHT22;38508;53.158;6.614;2023-05-07T08:14:31;14.10;99.90
52615;DHT22;38508;53.158;6.614;2023-05-07T08:16:57;14.20;99.90
52615;DHT22;38508;53.158;6.614;2023-05-07T08:19:23;14.20;99.90
52615;DHT22;38508;53.158;6.614;2023-05-07T08:21:48;14.20;99.90
52615;DHT22;38508;53.158;6.614;2023-05-07T08:24:14;14.20;99.90
52615;DHT22;38508;53.158;6.614;2023-05-07T08:26:41;14.20;99.90
52615;DHT22;38508;53.158;6.614;2023-05-07T08:29:07;14.40;99.90
52615;DHT22;38508;53.158;6.614;2023-05-07T08:31:33;14.50;99.90
52615;DHT22;38508;53.158;6.614;2023-05-07T08:33:59;14.40;99.90
52615;DHT22;38508;53.158;6.614;2023-05-07T08:36:25;14.30;99.90
52615;DHT22;38508;53.158;6.614;2023-05-07T08:38:51;14.20;99.90
52615;DHT22;38508;53.158;6.614;2023-05-07T08:41:17;14.20;99.90
52615;DHT22;38508;53.158;6.614;2023-05-07T08:43:49;14.10;99.90
52615;DHT22;38508;53.158;6.614;2023-05-07T08:46:20;13.80;99.90
52615;DHT22;38508;53.158;6.614;2023-05-07T08:48:50;13.80;99.90
52615;DHT22;38508;53.158;6.614;2023-05-07T08:51:18;14.10;99.90
52615;DHT22;38508;53.158;6.614;2023-05-07T08:53:44;14.20;99.90
52615;DHT22;38508;53.158;6.614;2023-05-07T08:56:10;14.20;99.90
52615;DHT22;38508;53.158;6.614;2023-05-07T08:58:36;14.30;99.90
52615;DHT22;38508;53.158;6.614;2023-05-07T09:01:11;14.00;99.90
52615;DHT22;38508;53.158;6.614;2023-05-07T09:03:44;14.20;99.90
52615;DHT22;38508;53.158;6.614;2023-05-07T09:06:10;14.60;99.90
52615;DHT22;38508;53.158;6.614;2023-05-07T09:08:36;14.70;99.90
52615;DHT22;38508;53.158;6.614;2023-05-07T09:11:02;14.70;99.90
52615;DHT22;38508;53.158;6.614;2023-05-07T09:13:28;14.90;99.90
52615;DHT22;38508;53.158;6.614;2023-05-07T09:15:57;14.90;99.90
52615;DHT22;38508;53.158;6.614;2023-05-07T09:18:25;14.90;99.90
52615;DHT22;38508;53.158;6.614;2023-05-07T09:20:54;14.80;99.90
52615;DHT22;38508;53.158;6.614;2023-05-07T09:23:26;14.10;99.90
52615;DHT22;38508;53.158;6.614;2023-05-07T09:26:03;14.00;99.90
52615;DHT22;38508;53.158;6.614;2023-05-07T09:28:29;13.70;99.90
52615;DHT22;38508;53.158;6.614;2023-05-07T09:30:55;13.80;99.90
52615;DHT22;38508;53.158;6.614;2023-05-07T09:33:21;13.80;99.90
52615;DHT22;38508;53.158;6.614;2023-05-07T09:35:51;13.90;99.90
52615;DHT22;38508;53.158;6.614;2023-05-07T09:38:18;14.00;99.90
52615;DHT22;38508;53.158;6.614;2023-05-07T09:40:45;13.90;99.90
52615;DHT22;38508;53.158;6.614;2023-05-07T09:43:14;14.10;99.90
52615;DHT22;38508;53.158;6.614;2023-05-07T09:45:41;14.10;99.90
52615;DHT22;38508;53.158;6.614;2023-05-07T09:48:18;14.40;99.90
52615;DHT22;38508;53.158;6.614;2023-05-07T09:50:49;14.70;99.90
52615;DHT22;38508;53.158;6.614;2023-05-07T09:53:16;14.80;99.90
52615;DHT22;38508;53.158;6.614;2023-05-07T09:55:43;15.00;99.90
52615;DHT22;38508;53.158;6.614;2023-05-07T09:58:09;15.20;99.90
52615;DHT22;38508;53.158;6.614;2023-05-07T10:00:37;15.40;99.90
52615;DHT22;38508;53.158;6.614;2023-05-07T10:03:12;15.60;99.90
52615;DHT22;38508;53.158;6.614;2023-05-07T10:05:40;15.40;99.90
52615;DHT22;38508;53.158;6.614;2023-05-07T10:08:06;15.50;99.90
52615;DHT22;38508;53.158;6.614;2023-05-07T10:10:33;15.40;99.90
52615;DHT22;38508;53.158;6.614;2023-05-07T10:13:01;15.30;99.90
52615;DHT22;38508;53.158;6.614;2023-05-07T10:15:28;15.40;99.90
52615;DHT22;38508;53.158;6.614;2023-05-07T10:17:54;15.70;99.90
52615;DHT22;38508;53.158;6.614;2023-05-07T10:20:21;15.80;99.90
52615;DHT22;38508;53.158;6.614;2023-05-07T10:22:48;15.90;99.90
52615;DHT22;38508;53.158;6.614;2023-05-07T10:25:18;15.80;99.90
52615;DHT22;38508;53.158;6.614;2023-05-07T10:27:46;16.00;99.90
52615;DHT22;38508;53.158;6.614;2023-05-07T10:32:55;16.10;99.90
52615;DHT22;38508;53.158;6.614;2023-05-07T10:35:26;16.00;99.90
52615;DHT22;38508;53.158;6.614;2023-05-07T10:37:54;16.00;99.90
52615;DHT22;38508;53.158;6.614;2023-05-07T10:40:21;16.20;99.90
52615;DHT22;38508;53.158;6.614;2023-05-07T10:42:54;16.00;99.90
52615;DHT22;38508;53.158;6.614;2023-05-07T10:45:21;15.90;99.90
52615;DHT22;38508;53.158;6.614;2023-05-07T10:48:13;16.20;99.90
52615;DHT22;38508;53.158;6.614;2023-05-07T10:50:41;16.50;99.90
52615;DHT22;38508;53.158;6.614;2023-05-07T10:58:36;16.70;99.90
52615;DHT22;38508;53.158;6.614;2023-05-07T11:01:03;17.10;99.90
52615;DHT22;38508;53.158;6.614;2023-05-07T11:03:29;17.10;99.90
52615;DHT22;38508;53.158;6.614;2023-05-07T11:06:14;17.30;99.90
52615;DHT22;38508;53.158;6.614;2023-05-07T11:11:18;17.50;99.90
52615;DHT22;38508;53.158;6.614;2023-05-07T11:13:49;17.60;99.90
52615;DHT22;38508;53.158;6.614;2023-05-07T11:16:24;17.50;99.90
52615;DHT22;38508;53.158;6.614;2023-05-07T11:18:52;17.40;99.90
52615;DHT22;38508;53.158;6.614;2023-05-07T11:21:38;17.40;99.90
52615;DHT22;38508;53.158;6.614;2023-05-07T11:24:08;17.60;99.90
52615;DHT22;38508;53.158;6.614;2023-05-07T11:27:03;17.70;99.90
52615;DHT22;38508;53.158;6.614;2023-05-07T11:29:32;17.40;99.90
52615;DHT22;38508;53.158;6.614;2023-05-07T11:31:58;17.20;99.90
52615;DHT22;38508;53.158;6.614;2023-05-07T11:34:26;16.50;99.90
52615;DHT22;38508;53.158;6.614;2023-05-07T11:36:55;16.50;99.90
52615;DHT22;38508;53.158;6.614;2023-05-07T11:39:30;16.90;99.90
52615;DHT22;38508;53.158;6.614;2023-05-07T11:41:57;17.30;99.90
52615;DHT22;38508;53.158;6.614;2023-05-07T11:44:22;17.80;99.90
52615;DHT22;38508;53.158;6.614;2023-05-07T11:46:49;17.80;99.90
52615;DHT22;38508;53.158;6.614;2023-05-07T11:49:14;18.40;99.90
52615;DHT22;38508;53.158;6.614;2023-05-07T11:51:41;18.50;99.90
52615;DHT22;38508;53.158;6.614;2023-05-07T11:54:08;18.70;99.90
52615;DHT22;38508;53.158;6.614;2023-05-07T11:56:37;19.20;99.90
52615;DHT22;38508;53.158;6.614;2023-05-07T11:59:03;19.50;99.90
52615;DHT22;38508;53.158;6.614;2023-05-07T12:01:28;19.40;99.90
52615;DHT22;38508;53.158;6.614;2023-05-07T12:03:54;20.00;99.90
52615;DHT22;38508;53.158;6.614;2023-05-07T12:06:20;20.10;99.90
52615;DHT22;38508;53.158;6.614;2023-05-07T12:08:46;20.40;99.90
52615;DHT22;38508;53.158;6.614;2023-05-07T12:11:30;20.60;99.90
52615;DHT22;38508;53.158;6.614;2023-05-07T12:13:55;20.50;99.90
52615;DHT22;38508;53.158;6.614;2023-05-07T12:16:21;20.70;99.90
52615;DHT22;38508;53.158;6.614;2023-05-07T12:18:47;21.00;99.90
52615;DHT22;38508;53.158;6.614;2023-05-07T12:21:15;20.90;99.90
52615;DHT22;38508;53.158;6.614;2023-05-07T12:23:42;20.50;99.90
52615;DHT22;38508;53.158;6.614;2023-05-07T12:26:08;20.70;99.90
52615;DHT22;38508;53.158;6.614;2023-05-07T12:28:42;20.50;99.90
52615;DHT22;38508;53.158;6.614;2023-05-07T12:31:08;20.30;99.90
52615;DHT22;38508;53.158;6.614;2023-05-07T12:33:35;20.00;99.90
52615;DHT22;38508;53.158;6.614;2023-05-07T12:36:05;20.20;99.90
52615;DHT22;38508;53.158;6.614;2023-05-07T12:38:35;20.60;99.90
52615;DHT22;38508;53.158;6.614;2023-05-07T12:41:02;20.90;99.90
52615;DHT22;38508;53.158;6.614;2023-05-07T12:43:29;21.00;99.90
52615;DHT22;38508;53.158;6.614;2023-05-07T12:45:56;21.10;99.90
52615;DHT22;38508;53.158;6.614;2023-05-07T12:48:23;21.10;99.90
52615;DHT22;38508;53.158;6.614;2023-05-07T12:50:55;21.10;99.90
52615;DHT22;38508;53.158;6.614;2023-05-07T12:53:22;21.10;99.90
52615;DHT22;38508;53.158;6.614;2023-05-07T12:55:53;21.20;99.90
52615;DHT22;38508;53.158;6.614;2023-05-07T12:58:27;21.40;99.90
52615;DHT22;38508;53.158;6.614;2023-05-07T13:00:54;21.70;99.90
52615;DHT22;38508;53.158;6.614;2023-05-07T13:03:33;21.70;99.90
52615;DHT22;38508;53.158;6.614;2023-05-07T13:06:04;21.80;99.90
52615;DHT22;38508;53.158;6.614;2023-05-07T13:10:59;21.80;99.90
52615;DHT22;38508;53.158;6.614;2023-05-07T13:13:25;22.10;99.90
52615;DHT22;38508;53.158;6.614;2023-05-07T13:15:51;22.20;99.90
52615;DHT22;38508;53.158;6.614;2023-05-07T13:18:17;22.20;99.90
52615;DHT22;38508;53.158;6.614;2023-05-07T13:20:43;22.30;99.90
52615;DHT22;38508;53.158;6.614;2023-05-07T13:23:08;22.40;99.90
52615;DHT22;38508;53.158;6.614;2023-05-07T13:25:34;22.60;99.90
52615;DHT22;38508;53.158;6.614;2023-05-07T13:28:00;22.60;99.90
52615;DHT22;38508;53.158;6.614;2023-05-07T13:30:26;22.70;99.90
52615;DHT22;38508;53.158;6.614;2023-05-07T13:32:55;22.70;99.90
52615;DHT22;38508;53.158;6.614;2023-05-07T13:35:21;22.50;99.90
52615;DHT22;38508;53.158;6.614;2023-05-07T13:37:46;22.80;99.90
52615;DHT22;38508;53.158;6.614;2023-05-07T13:40:14;22.80;99.90
52615;DHT22;38508;53.158;6.614;2023-05-07T13:42:40;22.70;99.90
52615;DHT22;38508;53.158;6.614;2023-05-07T13:45:07;22.80;99.90
52615;DHT22;38508;53.158;6.614;2023-05-07T13:47:33;23.00;99.90
52615;DHT22;38508;53.158;6.614;2023-05-07T13:49:58;22.60;99.90
52615;DHT22;38508;53.158;6.614;2023-05-07T13:52:24;22.60;99.90
52615;DHT22;38508;53.158;6.614;2023-05-07T13:54:50;22.70;99.90
52615;DHT22;38508;53.158;6.614;2023-05-07T13:57:17;22.50;99.90
52615;DHT22;38508;53.158;6.614;2023-05-07T13:59:43;22.30;99.90
52615;DHT22;38508;53.158;6.614;2023-05-07T14:02:09;22.40;99.90
52615;DHT22;38508;53.158;6.614;2023-05-07T14:04:34;22.60;99.90
52615;DHT22;38508;53.158;6.614;2023-05-07T14:07:00;22.90;99.90
52615;DHT22;38508;53.158;6.614;2023-05-07T14:09:26;22.90;99.90
52615;DHT22;38508;53.158;6.614;2023-05-07T14:11:52;22.90;99.90
52615;DHT22;38508;53.158;6.614;2023-05-07T14:14:18;22.70;99.90
52615;DHT22;38508;53.158;6.614;2023-05-07T14:16:44;22.60;99.90
52615;DHT22;38508;53.158;6.614;2023-05-07T14:19:11;22.50;99.90
52615;DHT22;38508;53.158;6.614;2023-05-07T14:21:36;22.80;99.90
52615;DHT22;38508;53.158;6.614;2023-05-07T14:24:02;23.20;99.90
52615;DHT22;38508;53.158;6.614;2023-05-07T14:26:28;23.20;99.90
52615;DHT22;38508;53.158;6.614;2023-05-07T14:28:54;23.30;99.90
52615;DHT22;38508;53.158;6.614;2023-05-07T14:31:22;23.60;99.90
52615;DHT22;38508;53.158;6.614;2023-05-07T14:33:48;23.60;99.90
52615;DHT22;38508;53.158;6.614;2023-05-07T14:36:19;23.80;99.90
52615;DHT22;38508;53.158;6.614;2023-05-07T14:38:49;23.60;99.90
52615;DHT22;38508;53.158;6.614;2023-05-07T14:41:15;23.50;99.90
52615;DHT22;38508;53.158;6.614;2023-05-07T14:43:41;23.80;99.90
52615;DHT22;38508;53.158;6.614;2023-05-07T14:46:07;23.60;99.90
52615;DHT22;38508;53.158;6.614;2023-05-07T14:48:32;23.20;99.90
52615;DHT22;38508;53.158;6.614;2023-05-07T14:50:58;23.30;99.90
52615;DHT22;38508;53.158;6.614;2023-05-07T14:53:24;23.10;99.90
52615;DHT22;38508;53.158;6.614;2023-05-07T14:55:49;22.80;99.90
52615;DHT22;38508;53.158;6.614;2023-05-07T14:58:15;22.60;99.90
52615;DHT22;38508;53.158;6.614;2023-05-07T15:00:41;22.60;99.90
52615;DHT22;38508;53.158;6.614;2023-05-07T15:03:09;22.60;99.90
52615;DHT22;38508;53.158;6.614;2023-05-07T15:05:36;22.40;99.90
52615;DHT22;38508;53.158;6.614;2023-05-07T15:08:01;22.10;99.90
52615;DHT22;38508;53.158;6.614;2023-05-07T15:10:27;22.10;99.90
52615;DHT22;38508;53.158;6.614;2023-05-07T15:12:53;22.10;99.90
52615;DHT22;38508;53.158;6.614;2023-05-07T15:15:19;22.30;99.90
52615;DHT22;38508;53.158;6.614;2023-05-07T15:17:44;22.40;99.90
52615;DHT22;38508;53.158;6.614;2023-05-07T15:20:10;22.10;99.90
52615;DHT22;38508;53.158;6.614;2023-05-07T15:22:36;21.90;99.90
52615;DHT22;38508;53.158;6.614;2023-05-07T15:25:03;22.00;99.90
52615;DHT22;38508;53.158;6.614;2023-05-07T15:27:30;22.10;99.90
52615;DHT22;38508;53.158;6.614;2023-05-07T15:29:57;22.20;99.90
52615;DHT22;38508;53.158;6.614;2023-05-07T15:32:22;21.90;99.90
52615;DHT22;38508;53.158;6.614;2023-05-07T15:34:48;21.80;99.90
52615;DHT22;38508;53.158;6.614;2023-05-07T15:37:14;21.60;99.90
52615;DHT22;38508;53.158;6.614;2023-05-07T15:39:39;21.40;99.90
52615;DHT22;38508;53.158;6.614;2023-05-07T15:42:05;21.60;99.90